• Join FlightAware (Why Join?)
  • Login
  • US Flag 
05:07AM EDT


 

Airport Tracker/Info


-or-


 

Live Flight TrackerFlight Track Log ✈ EJA370 ✈ 07-May-2013 ✈ KOKC - KMAF

Flight Track Log - Related Links

Times and Time Zones

All times are in EDT time to prevent confusion due to time zone crossing. See the EJA370 flight status page for this flight to view local times or setup timezone preferences in your user account.

Time Position Orientation Groundspeed Altitude Reporting Facility
EDT Latitude Longitude Course Direction KTS MPH feet Rate Location/Type
07:42AM 35.3811 -97.5944 179° South 165 190 1,900  Level Fort Worth Center
07:43AM 35.3561 -97.5942 179° South 189 217 3,200 3,600 Climbing Fort Worth Center
07:44AM 35.3039 -97.6019 187° South 261 300 6,400 3,900 Climbing Fort Worth Center
07:44AM 35.2850 -97.6169 213° Southwest 274 315 7,600 3,960 Climbing Fort Worth Center
07:45AM 35.2369 -97.6525 211° Southwest 269 310 10,400 3,600 Climbing Fort Worth Center
07:46AM 35.1681 -97.7081 213° Southwest 291 335 13,900 3,300 Climbing Fort Worth Center
07:47AM 35.0928 -97.7661 212° Southwest 311 358 17,100 2,700 Climbing Fort Worth Center
07:48AM 35.0092 -97.8267 211° Southwest 334 384 19,300 2,520 Climbing Fort Worth Center
07:49AM 34.9236 -97.8922 212° Southwest 352 405 22,200 2,400 Climbing Fort Worth Center
07:50AM 34.8356 -97.9600 212° Southwest 364 419 24,200 2,040 Climbing Fort Worth Center
07:51AM 34.7433 -98.0328 213° Southwest 383 441 26,300 2,100 Climbing Fort Worth Center
07:52AM 34.6492 -98.1053 212° Southwest 396 456 28,400 2,100 Climbing Fort Worth Center
07:53AM 34.5550 -98.1700 210° Southwest 401 461 30,500 1,620 Climbing Fort Worth Center
07:54AM 34.4606 -98.2447 213° Southwest 401 461 31,700 720 Climbing Fort Worth Center
07:55AM 34.3619 -98.3192 212° Southwest 411 473 32,000 120 Climbing Fort Worth Center
07:56AM 34.2572 -98.3961 211° Southwest 424 488 32,000 180 Level Fort Worth Center
07:57AM 34.1522 -98.4750 212° Southwest 442 509 32,400 600 Climbing Fort Worth Center
07:58AM 34.0578 -98.5367 208° Southwest 442 509 33,300 780 Climbing Fort Worth Center
07:59AM 33.9461 -98.6303 215° Southwest 442 509 34,000 300 Climbing Fort Worth Center
08:00AM 33.8450 -98.7164 215° Southwest 449 517 34,000  Level Fort Worth Center
08:01AM 33.7544 -98.7950 216° Southwest 449 517 34,000  Level Fort Worth Center
08:02AM 33.6556 -98.8808 216° Southwest 449 517 34,000  Level Fort Worth Center
08:03AM 33.5564 -98.9639 215° Southwest 449 517 34,000  Level Fort Worth Center
08:04AM 33.4594 -99.0442 215° Southwest 449 517 34,000  Level Fort Worth Center
08:05AM 33.3767 -99.1447 225° Southwest 443 510 34,000  Level Fort Worth Center
08:06AM 33.3228 -99.2681 242° Southwest 419 482 34,000  Level Fort Worth Center
08:07AM 33.2667 -99.3886 241° Southwest 419 482 34,000  Level Fort Worth Center
08:08AM 33.2125 -99.5092 242° Southwest 419 482 34,000  Level Fort Worth Center
08:09AM 33.1561 -99.6317 241° Southwest 419 482 34,000  Level Fort Worth Center
08:10AM 33.0994 -99.7544 241° Southwest 419 482 34,000  Level Fort Worth Center
08:11AM 33.0428 -99.8767 241° Southwest 419 482 34,000  Level Fort Worth Center
08:12AM 32.9903 -99.9992 243° Southwest 419 482 34,000  Level Fort Worth Center
08:13AM 32.9314 -100.1211 240° Southwest 425 489 34,000  Level Fort Worth Center
08:14AM 32.8764 -100.2431 242° Southwest 425 489 34,000  Level Fort Worth Center
08:15AM 32.8194 -100.3700 242° Southwest 430 495 34,000  Level Fort Worth Center
08:16AM 32.7600 -100.4889 239° Southwest 425 489 34,000 -540 Level Fort Worth Center
08:17AM 32.7050 -100.6106 242° Southwest 425 489 33,000 -1,800 Descending Fort Worth Center
08:18AM 32.6519 -100.7247 241° Southwest 414 476 30,400 -2,400 Descending Fort Worth Center
08:19AM 32.5942 -100.8458 241° Southwest 414 476 28,200 -2,220 Descending Fort Worth Center
08:20AM 32.5367 -100.9667 241° Southwest 414 476 26,000 -2,220 Descending Fort Worth Center
08:21AM 32.4833 -101.0803 241° Southwest 414 476 23,800 -2,220 Descending Fort Worth Center
08:22AM 32.4319 -101.1939 242° Southwest 409 471 21,600 -2,160 Descending Fort Worth Center
08:23AM 32.3697 -101.3167 239° Southwest 399 459 19,500 -1,920 Descending Fort Worth Center
08:24AM 32.3181 -101.4275 241° Southwest 393 452 17,800 -1,800 Descending Fort Worth Center
08:25AM 32.2669 -101.5311 240° Southwest 380 437 16,000 -1,680 Descending Fort Worth Center
08:26AM 32.2219 -101.6272 241° Southwest 364 419 14,500 -1,620 Descending Fort Worth Center
08:27AM 32.1811 -101.7258 244° Southwest 345 397 12,800 -1,920 Descending Fort Worth Center
08:28AM 32.1400 -101.8269 244° Southwest 340 391 10,700 -1,860 Descending Fort Worth Center
08:29AM 32.1011 -101.9206 244° Southwest 335 386 9,100 -1,560 Descending Fort Worth Center
08:30AM 32.0711 -102.0025 247° West 308 354 7,600 -1,500 Descending Fort Worth Center
08:31AM 32.0411 -102.0794 245° Southwest 278 320 6,100 -1,500 Descending Fort Worth Center
08:32AM 32.0175 -102.1517 249° West 260 299 4,600 -1,200 Descending Fort Worth Center
08:33AM 31.9967 -102.2022 244° Southwest 219 252 3,700 -780 Descending Fort Worth Center
08:34AM 31.9714 -102.2081 191° South 154 177 3,100 -600 Descending Fort Worth Center
08:39AM 31.9425 -102.2019 66° East  Level Estimated